createdAt,value
2023-11-08T00:00:10.267Z,78.46
2023-11-08T00:00:23.664Z,78.80
2023-11-08T00:00:35.640Z,78.67
2023-11-08T00:00:48.135Z,78.79
2023-11-08T00:01:01.833Z,78.74
2023-11-08T00:01:13.803Z,78.80
2023-11-08T00:01:25.759Z,79.04
2023-11-08T00:01:37.701Z,78.81
2023-11-08T00:01:50.457Z,79.09
2023-11-08T00:02:03.269Z,78.64
2023-11-08T00:02:15.270Z,79.02
2023-11-08T00:02:27.399Z,78.96
2023-11-08T00:02:39.504Z,78.61
2023-11-08T00:02:51.818Z,78.59
2023-11-08T00:03:04.061Z,78.73
2023-11-08T00:03:16.731Z,78.97
2023-11-08T00:03:28.900Z,79.12
2023-11-08T00:03:41.822Z,78.87
2023-11-08T00:03:53.956Z,79.19
2023-11-08T00:04:06.395Z,79.04
2023-11-08T00:04:18.479Z,79.20
2023-11-08T00:04:30.551Z,79.48
2023-11-08T00:04:42.568Z,79.67
2023-11-08T00:04:54.524Z,79.51
2023-11-08T00:05:06.985Z,79.79
2023-11-08T00:05:18.996Z,79.83
2023-11-08T00:05:32.122Z,79.84
2023-11-08T00:05:44.108Z,79.55
2023-11-08T00:05:56.513Z,79.44
2023-11-08T00:06:09.875Z,79.28
2023-11-08T00:06:22.274Z,79.36
2023-11-08T00:06:34.926Z,79.55
2023-11-08T00:06:47.284Z,79.45
2023-11-08T00:06:59.376Z,79.61
2023-11-08T00:07:11.582Z,79.43
2023-11-08T00:07:23.788Z,79.26
2023-11-08T00:07:35.736Z,79.54
2023-11-08T00:07:47.710Z,79.89
2023-11-08T00:07:59.623Z,79.45
2023-11-08T00:08:11.574Z,79.71
2023-11-08T00:08:23.525Z,79.77
2023-11-08T00:08:35.565Z,80.03
2023-11-08T00:08:51.617Z,80.37
2023-11-08T00:09:03.677Z,80.14
2023-11-08T00:09:15.708Z,80.00
2023-11-08T00:09:27.739Z,79.70
2023-11-08T00:09:39.877Z,80.02
2023-11-08T00:09:51.887Z,79.84
2023-11-08T00:10:04.118Z,79.84
2023-11-08T00:10:16.079Z,79.47
2023-11-08T00:10:28.152Z,79.70
2023-11-08T00:10:41.108Z,79.59
2023-11-08T00:10:53.332Z,79.54
2023-11-08T00:11:05.313Z,79.76
2023-11-08T00:11:17.833Z,79.59
2023-11-08T00:11:29.821Z,79.46
2023-11-08T00:11:42.431Z,79.28
2023-11-08T00:11:54.416Z,79.63
2023-11-08T00:12:06.839Z,79.33
2023-11-08T00:12:18.966Z,79.28
2023-11-08T00:12:31.523Z,79.21
2023-11-08T00:12:43.560Z,79.45
2023-11-08T00:12:59.229Z,79.83
2023-11-08T00:13:11.294Z,79.71
2023-11-08T00:13:23.254Z,79.55
2023-11-08T00:13:35.274Z,79.28
2023-11-08T00:13:47.252Z,79.49
2023-11-08T00:13:59.199Z,79.43
2023-11-08T00:14:13.789Z,79.33
2023-11-08T00:14:25.843Z,79.23
2023-11-08T00:14:37.851Z,79.20
2023-11-08T00:14:49.834Z,79.12
2023-11-08T00:15:01.812Z,79.13
2023-11-08T00:15:13.950Z,79.27
2023-11-08T00:15:26.120Z,79.49
2023-11-08T00:15:38.148Z,79.55
2023-11-08T00:15:50.211Z,79.63
2023-11-08T00:16:02.201Z,79.60
2023-11-08T00:16:14.142Z,79.28
2023-11-08T00:16:26.107Z,79.68
2023-11-08T00:16:38.424Z,79.27
2023-11-08T00:16:50.424Z,79.20
2023-11-08T00:17:02.608Z,79.09
2023-11-08T00:17:15.484Z,79.49
2023-11-08T00:17:27.678Z,79.54
2023-11-08T00:17:40.997Z,79.40
2023-11-08T00:17:52.990Z,79.15
2023-11-08T00:18:06.852Z,79.14
2023-11-08T00:18:19.215Z,79.38
2023-11-08T00:18:31.279Z,79.42
2023-11-08T00:18:43.353Z,79.51
2023-11-08T00:18:55.801Z,79.32
2023-11-08T00:19:10.686Z,79.44
2023-11-08T00:19:22.653Z,79.70
2023-11-08T00:19:34.605Z,79.76
2023-11-08T00:19:47.078Z,79.73
2023-11-08T00:19:59.031Z,79.53
2023-11-08T00:20:12.293Z,79.10
2023-11-08T00:20:24.401Z,79.11
2023-11-08T00:20:36.400Z,78.96
2023-11-08T00:20:48.438Z,79.13
2023-11-08T00:21:01.592Z,79.24
2023-11-08T00:21:13.634Z,79.17
2023-11-08T00:21:25.997Z,79.48
2023-11-08T00:21:38.399Z,79.65
2023-11-08T00:21:50.972Z,79.60
2023-11-08T00:22:03.018Z,79.87
2023-11-08T00:22:15.075Z,79.86
2023-11-08T00:22:26.993Z,79.60
2023-11-08T00:22:39.308Z,79.85
2023-11-08T00:22:52.574Z,79.74
2023-11-08T00:23:04.527Z,79.71
2023-11-08T00:23:16.486Z,79.67
2023-11-08T00:23:28.446Z,79.55
2023-11-08T00:23:41.057Z,79.47
2023-11-08T00:23:53.011Z,79.42
2023-11-08T00:24:05.200Z,79.43
2023-11-08T00:24:19.440Z,79.16
2023-11-08T00:24:31.483Z,79.37
2023-11-08T00:24:43.542Z,79.16
2023-11-08T00:24:55.498Z,79.33
2023-11-08T00:25:07.867Z,79.43
2023-11-08T00:25:19.828Z,79.36
2023-11-08T00:25:31.831Z,79.35
2023-11-08T00:25:44.305Z,79.39
2023-11-08T00:25:56.301Z,79.55
2023-11-08T00:26:08.394Z,79.21
2023-11-08T00:26:20.402Z,79.34
2023-11-08T00:26:32.381Z,79.33
2023-11-08T00:26:44.330Z,79.52
2023-11-08T00:26:56.342Z,79.63
2023-11-08T00:27:08.330Z,79.38
2023-11-08T00:27:20.909Z,79.58
2023-11-08T00:27:33.235Z,79.41
2023-11-08T00:27:45.276Z,79.08
2023-11-08T00:27:57.236Z,79.09
2023-11-08T00:28:09.254Z,78.70
2023-11-08T00:28:21.577Z,78.57
2023-11-08T00:28:34.318Z,79.03
2023-11-08T00:28:47.760Z,79.16
2023-11-08T00:28:59.776Z,79.19
2023-11-08T00:29:11.845Z,78.94
2023-11-08T00:29:26.524Z,78.90
2023-11-08T00:29:38.443Z,78.85
2023-11-08T00:29:50.424Z,78.77
2023-11-08T00:30:04.440Z,78.87
2023-11-08T00:30:16.560Z,78.55
2023-11-08T00:30:28.548Z,78.34
2023-11-08T00:30:40.652Z,78.53
2023-11-08T00:30:53.727Z,78.54
2023-11-08T00:31:05.670Z,78.50
2023-11-08T00:31:17.646Z,78.72
2023-11-08T00:31:29.557Z,79.24
2023-11-08T00:31:41.598Z,79.01
2023-11-08T00:31:53.559Z,79.10
2023-11-08T00:32:06.162Z,78.98
2023-11-08T00:32:22.479Z,79.03
2023-11-08T00:32:34.585Z,78.83
2023-11-08T00:32:47.885Z,78.84
2023-11-08T00:32:59.932Z,78.99
2023-11-08T00:33:12.590Z,78.69
2023-11-08T00:33:25.786Z,79.04
2023-11-08T00:33:37.865Z,78.96
2023-11-08T00:33:50.192Z,79.12
2023-11-08T00:34:02.124Z,78.60
2023-11-08T00:34:16.691Z,78.89
2023-11-08T00:34:28.976Z,78.94
2023-11-08T00:34:41.090Z,78.73
2023-11-08T00:34:53.140Z,78.82
2023-11-08T00:35:06.006Z,78.65
2023-11-08T00:35:19.829Z,78.88
2023-11-08T00:35:31.801Z,78.79
2023-11-08T00:35:43.704Z,78.69
2023-11-08T00:35:55.760Z,78.99
2023-11-08T00:36:08.004Z,79.33
2023-11-08T00:36:20.489Z,78.92
2023-11-08T00:36:32.561Z,78.82
2023-11-08T00:36:44.800Z,78.83
2023-11-08T00:36:57.324Z,78.71
2023-11-08T00:37:11.062Z,78.85
2023-11-08T00:37:23.853Z,79.26
2023-11-08T00:37:35.892Z,79.00
2023-11-08T00:37:47.937Z,79.14
2023-11-08T00:37:59.898Z,79.35
2023-11-08T00:38:12.252Z,79.64
2023-11-08T00:38:24.208Z,79.55
2023-11-08T00:38:36.327Z,79.28
2023-11-08T00:38:48.364Z,78.86
2023-11-08T00:39:00.474Z,79.05
2023-11-08T00:39:12.563Z,79.00
2023-11-08T00:39:24.537Z,79.05
2023-11-08T00:39:36.489Z,78.98
2023-11-08T00:39:49.010Z,79.04
2023-11-08T00:40:00.946Z,79.31
2023-11-08T00:40:13.194Z,79.50
2023-11-08T00:40:25.264Z,79.48
2023-11-08T00:40:37.184Z,79.50
2023-11-08T00:40:49.161Z,79.31
2023-11-08T00:41:01.128Z,79.39
2023-11-08T00:41:14.329Z,79.39
2023-11-08T00:41:26.605Z,79.63
2023-11-08T00:41:38.534Z,79.63
2023-11-08T00:41:50.547Z,79.53
2023-11-08T00:42:02.512Z,79.18
2023-11-08T00:42:15.734Z,79.39
2023-11-08T00:42:27.825Z,79.31
2023-11-08T00:42:39.876Z,79.31
2023-11-08T00:42:51.972Z,78.97
2023-11-08T00:43:04.090Z,79.27
2023-11-08T00:43:16.367Z,79.23
2023-11-08T00:43:28.444Z,79.14
2023-11-08T00:43:40.990Z,79.17
2023-11-08T00:43:57.217Z,78.83
2023-11-08T00:44:10.770Z,78.90
2023-11-08T00:44:22.746Z,78.88
2023-11-08T00:44:34.738Z,79.22
2023-11-08T00:44:46.800Z,79.29
2023-11-08T00:44:58.722Z,79.05
2023-11-08T00:45:10.902Z,78.99
2023-11-08T00:45:22.987Z,79.08
2023-11-08T00:45:35.456Z,79.52
2023-11-08T00:45:47.733Z,79.56
2023-11-08T00:46:03.660Z,79.58
2023-11-08T00:46:15.689Z,79.22
2023-11-08T00:46:27.738Z,79.58
2023-11-08T00:46:39.840Z,79.43
2023-11-08T00:46:52.641Z,79.40
2023-11-08T00:47:05.046Z,79.32
2023-11-08T00:47:17.069Z,79.38
2023-11-08T00:47:29.757Z,79.47
2023-11-08T00:47:44.648Z,79.56
2023-11-08T00:47:57.126Z,79.32
2023-11-08T00:48:09.336Z,79.50
2023-11-08T00:48:24.890Z,79.53
2023-11-08T00:48:37.490Z,79.41
2023-11-08T00:48:49.673Z,79.35
2023-11-08T00:49:04.616Z,79.59
2023-11-08T00:49:16.695Z,79.34
2023-11-08T00:49:29.567Z,79.25
2023-11-08T00:49:42.329Z,79.46
2023-11-08T00:49:54.435Z,79.46
2023-11-08T00:50:07.372Z,79.34
2023-11-08T00:50:20.304Z,79.10
2023-11-08T00:50:32.607Z,79.07
2023-11-08T00:50:45.436Z,79.15
2023-11-08T00:50:57.586Z,79.80
2023-11-08T00:51:09.723Z,79.69
2023-11-08T00:51:21.820Z,79.91
2023-11-08T00:51:34.007Z,80.02
2023-11-08T00:51:47.212Z,79.95
2023-11-08T00:52:01.342Z,79.95
2023-11-08T00:52:13.330Z,79.89
2023-11-08T00:52:25.849Z,80.21
2023-11-08T00:52:38.140Z,79.89
2023-11-08T00:52:52.544Z,79.57
2023-11-08T00:53:04.987Z,79.56
2023-11-08T00:53:16.957Z,79.67
2023-11-08T00:53:28.970Z,79.75
2023-11-08T00:53:40.926Z,79.49
2023-11-08T00:53:52.916Z,79.63
2023-11-08T00:54:04.946Z,79.39
2023-11-08T00:54:18.437Z,79.67
2023-11-08T00:54:33.873Z,79.80
2023-11-08T00:54:45.883Z,79.72
2023-11-08T00:54:57.881Z,79.97
2023-11-08T00:55:10.307Z,80.00
2023-11-08T00:55:22.377Z,80.01
2023-11-08T00:55:34.406Z,80.11
2023-11-08T00:55:46.526Z,80.03
2023-11-08T00:55:58.503Z,80.32
2023-11-08T00:56:10.985Z,80.26
2023-11-08T00:56:22.983Z,80.19
2023-11-08T00:56:34.901Z,80.05
2023-11-08T00:56:46.965Z,80.51
2023-11-08T00:56:58.890Z,80.54
2023-11-08T00:57:11.481Z,80.42
2023-11-08T00:57:23.573Z,80.35
2023-11-08T00:57:36.498Z,80.44
2023-11-08T00:57:48.545Z,80.31
2023-11-08T00:58:00.529Z,80.50
2023-11-08T00:58:12.483Z,80.48
2023-11-08T00:58:24.438Z,80.25
2023-11-08T00:58:37.795Z,80.16
2023-11-08T00:58:49.831Z,80.39
2023-11-08T00:59:01.788Z,80.25
2023-11-08T00:59:14.030Z,80.14
2023-11-08T00:59:26.998Z,80.55
2023-11-08T00:59:38.992Z,80.33
2023-11-08T00:59:50.945Z,80.62
2023-11-08T01:00:08.816Z,80.80
2023-11-08T01:00:21.446Z,80.72
2023-11-08T01:00:33.417Z,80.90
2023-11-08T01:00:45.968Z,80.51
2023-11-08T01:00:58.025Z,80.51
2023-11-08T01:01:10.024Z,80.37
2023-11-08T01:01:23.485Z,80.55
2023-11-08T01:01:36.457Z,80.43
2023-11-08T01:01:49.186Z,80.34
2023-11-08T01:02:01.186Z,80.46
2023-11-08T01:02:13.162Z,80.75
2023-11-08T01:02:25.188Z,81.89
2023-11-08T01:02:37.542Z,82.46
2023-11-08T01:02:49.639Z,82.77
2023-11-08T01:03:02.234Z,81.99
2023-11-08T01:03:14.538Z,81.71
2023-11-08T01:03:26.721Z,82.08
2023-11-08T01:03:38.893Z,81.76
2023-11-08T01:03:51.785Z,81.46
2023-11-08T01:04:08.149Z,81.76
2023-11-08T01:04:20.325Z,82.27
2023-11-08T01:04:32.502Z,82.30
2023-11-08T01:04:45.085Z,82.72
2023-11-08T01:04:57.626Z,82.37
2023-11-08T01:05:10.723Z,82.07
2023-11-08T01:05:22.778Z,81.76
2023-11-08T01:05:34.866Z,81.35
2023-11-08T01:05:46.898Z,81.49
2023-11-08T01:05:59.720Z,81.18
2023-11-08T01:06:11.761Z,81.16
2023-11-08T01:06:28.053Z,81.35
2023-11-08T01:06:43.449Z,81.30
2023-11-08T01:06:55.471Z,81.30
2023-11-08T01:07:07.585Z,81.43
2023-11-08T01:07:19.538Z,81.42
2023-11-08T01:07:31.728Z,81.25
2023-11-08T01:07:43.680Z,81.25
2023-11-08T01:07:55.577Z,81.04
2023-11-08T01:08:08.405Z,80.56
2023-11-08T01:08:20.335Z,80.60
2023-11-08T01:08:32.294Z,80.58
2023-11-08T01:08:44.287Z,80.51
2023-11-08T01:08:56.396Z,81.07
2023-11-08T01:09:09.615Z,80.67
2023-11-08T01:09:22.131Z,81.09
2023-11-08T01:09:34.357Z,80.86
2023-11-08T01:09:46.578Z,80.72
2023-11-08T01:09:58.808Z,80.66
2023-11-08T01:10:11.413Z,80.42
2023-11-08T01:10:23.521Z,80.63
2023-11-08T01:10:38.993Z,80.31
2023-11-08T01:10:52.754Z,80.33
2023-11-08T01:11:04.679Z,80.48
2023-11-08T01:11:18.135Z,80.61
2023-11-08T01:11:30.115Z,80.31
2023-11-08T01:11:43.604Z,80.45
2023-11-08T01:11:55.669Z,80.31
2023-11-08T01:12:07.626Z,80.24
2023-11-08T01:12:19.747Z,79.93
2023-11-08T01:12:31.745Z,80.19
2023-11-08T01:12:43.716Z,80.27
2023-11-08T01:12:55.763Z,79.97
2023-11-08T01:13:07.943Z,79.80
2023-11-08T01:13:19.874Z,79.80
2023-11-08T01:13:32.498Z,79.90
2023-11-08T01:13:47.085Z,79.92
2023-11-08T01:13:59.104Z,79.83
2023-11-08T01:14:12.023Z,80.11
2023-11-08T01:14:24.422Z,80.08
2023-11-08T01:14:36.415Z,79.96
2023-11-08T01:14:48.398Z,80.10
2023-11-08T01:15:00.885Z,80.10
2023-11-08T01:15:12.972Z,79.84
2023-11-08T01:15:25.092Z,80.05
2023-11-08T01:15:40.557Z,79.78
2023-11-08T01:15:52.764Z,79.78
2023-11-08T01:16:07.062Z,79.61
2023-11-08T01:16:19.052Z,80.36
2023-11-08T01:16:31.037Z,80.51
2023-11-08T01:16:42.991Z,80.40
2023-11-08T01:16:55.438Z,80.56
2023-11-08T01:17:07.769Z,80.89
2023-11-08T01:17:19.845Z,80.59
2023-11-08T01:17:31.941Z,80.54
2023-11-08T01:17:44.812Z,80.87
2023-11-08T01:17:56.987Z,80.58
2023-11-08T01:18:09.519Z,80.72
2023-11-08T01:18:21.974Z,80.56
2023-11-08T01:18:35.679Z,80.29
2023-11-08T01:18:47.994Z,80.39
2023-11-08T01:19:00.122Z,80.33
2023-11-08T01:19:12.622Z,80.46
2023-11-08T01:19:26.085Z,80.39
2023-11-08T01:19:38.146Z,80.31
2023-11-08T01:19:50.107Z,80.51
2023-11-08T01:20:03.921Z,80.36
2023-11-08T01:20:15.840Z,80.32
2023-11-08T01:20:27.847Z,79.88
2023-11-08T01:20:42.258Z,79.90
2023-11-08T01:20:54.720Z,80.28
2023-11-08T01:21:06.986Z,80.45
2023-11-08T01:21:19.033Z,80.41
2023-11-08T01:21:32.471Z,80.35
2023-11-08T01:21:47.020Z,80.55
2023-11-08T01:21:59.141Z,80.65
2023-11-08T01:22:11.882Z,80.63
2023-11-08T01:22:24.587Z,80.51
2023-11-08T01:22:37.632Z,80.65
2023-11-08T01:22:49.585Z,80.65
2023-11-08T01:23:01.844Z,80.70
2023-11-08T01:23:14.934Z,80.95
2023-11-08T01:23:28.204Z,80.82
2023-11-08T01:23:40.217Z,81.26
2023-11-08T01:23:52.698Z,81.12
2023-11-08T01:24:05.457Z,81.09
2023-11-08T01:24:17.478Z,81.41
2023-11-08T01:24:29.532Z,81.52
2023-11-08T01:24:42.398Z,81.66
2023-11-08T01:24:54.460Z,81.40
2023-11-08T01:25:07.231Z,81.72
2023-11-08T01:25:19.200Z,81.80
2023-11-08T01:25:31.991Z,81.78
2023-11-08T01:25:44.159Z,81.79
2023-11-08T01:25:56.142Z,81.75
2023-11-08T01:26:09.243Z,81.58
2023-11-08T01:26:21.598Z,81.35
2023-11-08T01:26:33.637Z,81.35
2023-11-08T01:26:45.597Z,80.93
2023-11-08T01:26:57.675Z,81.06
2023-11-08T01:27:10.171Z,80.96
2023-11-08T01:27:22.117Z,80.79
2023-11-08T01:27:34.124Z,81.00
2023-11-08T01:27:46.351Z,81.35
2023-11-08T01:27:58.268Z,81.04
2023-11-08T01:28:12.130Z,81.20
2023-11-08T01:28:25.024Z,81.33
2023-11-08T01:28:37.379Z,81.82
2023-11-08T01:28:49.396Z,81.37
2023-11-08T01:29:01.359Z,81.68
2023-11-08T01:29:13.853Z,81.35
2023-11-08T01:29:26.795Z,81.82
2023-11-08T01:29:38.789Z,82.25
2023-11-08T01:29:50.858Z,82.12
2023-11-08T01:30:05.570Z,82.21
2023-11-08T01:30:19.054Z,81.85
2023-11-08T01:30:31.059Z,82.09
2023-11-08T01:30:43.510Z,81.93
2023-11-08T01:30:55.472Z,81.88
2023-11-08T01:31:08.172Z,81.53
2023-11-08T01:31:20.136Z,81.57
2023-11-08T01:31:32.125Z,81.85
2023-11-08T01:31:45.472Z,81.55
2023-11-08T01:31:57.931Z,81.67
2023-11-08T01:32:09.940Z,81.61
2023-11-08T01:32:21.867Z,81.30
2023-11-08T01:32:33.898Z,81.48
2023-11-08T01:32:45.960Z,81.44
2023-11-08T01:32:58.473Z,81.36
2023-11-08T01:33:10.770Z,81.39
2023-11-08T01:33:22.957Z,81.60
2023-11-08T01:33:35.104Z,81.48
2023-11-08T01:33:47.158Z,81.61
2023-11-08T01:33:59.392Z,81.82
2023-11-08T01:34:12.825Z,81.72
2023-11-08T01:34:24.933Z,81.87
2023-11-08T01:34:37.553Z,82.15
2023-11-08T01:34:49.668Z,82.09
2023-11-08T01:35:02.463Z,82.25
2023-11-08T01:35:14.371Z,82.31
2023-11-08T01:35:26.303Z,82.63
2023-11-08T01:35:38.844Z,82.55
2023-11-08T01:35:50.825Z,82.86
2023-11-08T01:36:03.027Z,82.80
2023-11-08T01:36:15.066Z,82.79
2023-11-08T01:36:27.161Z,83.06
2023-11-08T01:36:39.206Z,83.07
2023-11-08T01:36:51.215Z,83.14
2023-11-08T01:37:03.198Z,83.12
2023-11-08T01:37:15.288Z,83.08
2023-11-08T01:37:27.430Z,83.27
2023-11-08T01:37:43.089Z,83.00
2023-11-08T01:37:55.057Z,82.98
2023-11-08T01:38:07.075Z,82.87
2023-11-08T01:38:19.086Z,83.38
2023-11-08T01:38:31.952Z,83.57
2023-11-08T01:38:46.970Z,83.55
2023-11-08T01:38:59.697Z,83.62
2023-11-08T01:39:11.757Z,83.60
2023-11-08T01:39:23.787Z,83.65
2023-11-08T01:39:35.796Z,83.58
2023-11-08T01:39:47.945Z,83.28
2023-11-08T01:39:59.948Z,83.30
2023-11-08T01:40:12.051Z,83.13
2023-11-08T01:40:23.982Z,83.13
2023-11-08T01:40:37.082Z,83.04
2023-11-08T01:40:49.730Z,83.33
2023-11-08T01:41:01.753Z,83.14
2023-11-08T01:41:13.708Z,83.16
2023-11-08T01:41:25.941Z,83.29
2023-11-08T01:41:37.966Z,83.32
2023-11-08T01:41:50.821Z,83.24
2023-11-08T01:42:03.237Z,82.99
2023-11-08T01:42:18.722Z,83.07
2023-11-08T01:42:30.790Z,82.89
2023-11-08T01:42:42.840Z,82.90
2023-11-08T01:42:54.821Z,82.81
2023-11-08T01:43:06.802Z,82.80
2023-11-08T01:43:32.468Z,82.55
2023-11-08T01:43:44.525Z,82.79
2023-11-08T01:43:59.463Z,82.39
2023-11-08T01:44:13.288Z,82.39
2023-11-08T01:44:25.460Z,82.55
2023-11-08T01:44:37.584Z,82.54
2023-11-08T01:44:50.725Z,82.81
2023-11-08T01:45:03.929Z,82.58
2023-11-08T01:45:16.115Z,82.85
2023-11-08T01:45:28.151Z,82.64
2023-11-08T01:45:40.277Z,82.94
2023-11-08T01:45:55.949Z,83.03
2023-11-08T01:46:34.994Z,83.48
2023-11-08T01:46:54.344Z,83.15
2023-11-08T01:47:07.325Z,83.54
2023-11-08T01:47:19.313Z,83.33
2023-11-08T01:47:36.546Z,83.27
2023-11-08T01:47:50.159Z,83.36
2023-11-08T01:48:02.267Z,83.60
2023-11-08T01:48:14.810Z,83.67
2023-11-08T01:48:27.064Z,83.43
2023-11-08T01:48:41.639Z,83.89
2023-11-08T01:48:54.399Z,83.62
2023-11-08T01:49:06.612Z,83.72
2023-11-08T01:49:19.427Z,83.47
2023-11-08T01:49:31.728Z,83.80
2023-11-08T01:49:45.427Z,84.05
2023-11-08T01:49:57.828Z,84.00
2023-11-08T01:50:10.705Z,83.88
2023-11-08T01:50:22.858Z,84.07
2023-11-08T01:50:35.057Z,83.94
2023-11-08T01:50:47.204Z,84.14
2023-11-08T01:50:59.365Z,83.82
2023-11-08T01:51:12.779Z,83.83
2023-11-08T01:51:26.356Z,83.82
2023-11-08T01:51:38.376Z,83.72
2023-11-08T01:51:50.924Z,83.88
2023-11-08T01:52:03.398Z,84.00
2023-11-08T01:52:15.930Z,83.94
2023-11-08T01:52:27.982Z,84.34
2023-11-08T01:52:40.048Z,83.80
2023-11-08T01:52:52.212Z,83.83
2023-11-08T01:53:04.314Z,83.67
2023-11-08T01:53:16.500Z,83.60
2023-11-08T01:53:30.005Z,83.31
2023-11-08T01:53:43.959Z,83.54
2023-11-08T01:53:56.597Z,83.35
2023-11-08T01:54:09.072Z,83.26
2023-11-08T01:54:21.331Z,83.40
2023-11-08T01:54:34.292Z,83.33
2023-11-08T01:54:49.340Z,83.12
2023-11-08T01:55:02.354Z,83.33
2023-11-08T01:55:14.588Z,83.36
2023-11-08T01:55:26.973Z,83.30
2023-11-08T01:55:39.237Z,83.27
2023-11-08T01:55:52.271Z,83.49
2023-11-08T01:56:07.456Z,83.60
2023-11-08T01:56:20.233Z,83.50
2023-11-08T01:56:33.296Z,83.66
2023-11-08T01:56:46.605Z,83.80
2023-11-08T01:56:59.001Z,83.58
2023-11-08T01:57:11.043Z,83.62
2023-11-08T01:57:24.746Z,83.41
2023-11-08T01:57:37.440Z,83.67
2023-11-08T01:57:50.128Z,83.52
2023-11-08T01:58:02.353Z,83.81
2023-11-08T01:58:14.448Z,83.75
2023-11-08T01:58:26.425Z,83.88
2023-11-08T01:58:39.758Z,83.67
2023-11-08T01:58:53.106Z,83.82
2023-11-08T01:59:06.669Z,83.57
2023-11-08T01:59:19.403Z,83.49
2023-11-08T01:59:32.117Z,83.63
2023-11-08T01:59:45.100Z,83.59
2023-11-08T02:00:00.203Z,83.67
2023-11-08T02:00:15.597Z,83.94
2023-11-08T02:00:32.108Z,83.81
2023-11-08T02:00:49.034Z,83.72
2023-11-08T02:01:05.905Z,83.92
2023-11-08T02:01:19.904Z,84.11
2023-11-08T02:01:32.543Z,84.17
2023-11-08T02:01:45.986Z,84.30
2023-11-08T02:01:58.823Z,84.17
2023-11-08T02:02:10.941Z,84.13
2023-11-08T02:02:23.202Z,84.14
2023-11-08T02:02:35.463Z,84.33
2023-11-08T02:02:47.836Z,84.25
2023-11-08T02:03:00.084Z,84.35
2023-11-08T02:03:12.363Z,84.64
2023-11-08T02:03:27.157Z,84.35
2023-11-08T02:03:41.210Z,84.60
2023-11-08T02:03:54.445Z,84.74
2023-11-08T02:04:07.220Z,85.09
2023-11-08T02:04:19.825Z,84.88
2023-11-08T02:04:33.212Z,85.15
2023-11-08T02:04:45.464Z,85.25
2023-11-08T02:04:57.911Z,84.90
2023-11-08T02:05:11.213Z,85.23
2023-11-08T02:05:25.688Z,85.33
2023-11-08T02:05:37.893Z,85.46
2023-11-08T02:05:49.944Z,85.36
2023-11-08T02:06:03.678Z,85.52
2023-11-08T02:06:17.111Z,85.36
2023-11-08T02:06:29.191Z,85.89
2023-11-08T02:06:41.275Z,85.48
2023-11-08T02:06:54.398Z,85.42
2023-11-08T02:07:06.521Z,85.52
2023-11-08T02:07:18.466Z,85.47
2023-11-08T02:07:32.043Z,85.57
2023-11-08T02:07:44.074Z,85.61
2023-11-08T02:07:56.918Z,85.36
2023-11-08T02:08:08.945Z,85.77
2023-11-08T02:08:21.389Z,85.61
2023-11-08T02:08:33.466Z,85.73
2023-11-08T02:08:46.799Z,85.89
2023-11-08T02:09:01.945Z,85.62
2023-11-08T02:09:14.638Z,85.78
2023-11-08T02:09:27.179Z,85.60
2023-11-08T02:09:39.397Z,85.64
2023-11-08T02:09:51.533Z,85.66
2023-11-08T02:10:05.532Z,85.55
2023-11-08T02:10:17.767Z,85.81
2023-11-08T02:10:29.745Z,86.03
2023-11-08T02:10:41.935Z,85.89
2023-11-08T02:10:54.310Z,85.97
2023-11-08T02:11:06.897Z,85.84
2023-11-08T02:11:18.879Z,85.52
2023-11-08T02:11:31.037Z,85.61
2023-11-08T02:11:43.100Z,85.75
2023-11-08T02:11:55.205Z,85.88
2023-11-08T02:12:07.651Z,85.91
2023-11-08T02:12:21.998Z,85.98
2023-11-08T02:12:36.105Z,85.65
2023-11-08T02:12:49.095Z,85.75
2023-11-08T02:13:01.067Z,85.94
2023-11-08T02:13:13.501Z,85.99
2023-11-08T02:13:25.787Z,85.95
2023-11-08T02:13:37.772Z,86.07
2023-11-08T02:13:50.644Z,85.81
2023-11-08T02:14:03.164Z,85.92
2023-11-08T02:14:15.217Z,85.69
2023-11-08T02:14:28.904Z,85.63
2023-11-08T02:15:00.786Z,85.79
2023-11-08T02:15:16.235Z,85.94
2023-11-08T02:15:28.400Z,86.06
2023-11-08T02:15:42.679Z,85.92
2023-11-08T02:15:54.721Z,85.70
2023-11-08T02:16:07.262Z,85.80
2023-11-08T02:16:19.289Z,85.91
2023-11-08T02:16:33.087Z,86.02
2023-11-08T02:16:45.159Z,86.11
2023-11-08T02:16:57.394Z,86.03
2023-11-08T02:17:09.400Z,86.21
2023-11-08T02:17:21.422Z,85.57
2023-11-08T02:17:33.577Z,86.25
2023-11-08T02:17:45.702Z,86.00
2023-11-08T02:17:57.720Z,86.17
2023-11-08T02:18:11.915Z,86.39
2023-11-08T02:18:23.980Z,86.20
2023-11-08T02:18:36.147Z,86.31
2023-11-08T02:18:48.210Z,86.37
2023-11-08T02:19:00.460Z,86.26
2023-11-08T02:19:12.744Z,86.32
2023-11-08T02:19:24.799Z,86.37
2023-11-08T02:19:36.871Z,86.43
2023-11-08T02:19:48.874Z,86.52
2023-11-08T02:20:04.027Z,86.53
2023-11-08T02:20:16.109Z,86.50
2023-11-08T02:20:28.079Z,86.46
2023-11-08T02:20:40.105Z,86.88
2023-11-08T02:20:52.338Z,86.77
2023-11-08T02:21:04.572Z,87.13
2023-11-08T02:21:17.417Z,86.95
2023-11-08T02:21:29.458Z,86.97
2023-11-08T02:21:41.475Z,86.96
2023-11-08T02:21:53.572Z,86.93
2023-11-08T02:22:06.214Z,86.69
2023-11-08T02:22:18.533Z,86.81
2023-11-08T02:22:31.526Z,86.79
2023-11-08T02:22:43.485Z,86.67
2023-11-08T02:22:55.548Z,86.70
2023-11-08T02:23:08.290Z,86.70
2023-11-08T02:23:20.244Z,86.81
2023-11-08T02:23:34.885Z,86.94
2023-11-08T02:23:47.542Z,87.28
2023-11-08T02:24:08.021Z,87.58
2023-11-08T02:24:22.272Z,87.69
2023-11-08T02:24:34.408Z,87.36
2023-11-08T02:24:46.448Z,87.30
2023-11-08T02:24:58.423Z,87.36
2023-11-08T02:25:11.737Z,87.24
2023-11-08T02:25:25.050Z,86.97
2023-11-08T02:25:39.127Z,87.08
2023-11-08T02:25:51.060Z,86.99
2023-11-08T02:26:03.145Z,87.14
2023-11-08T02:26:15.516Z,86.98
2023-11-08T02:26:27.570Z,86.84
2023-11-08T02:26:40.656Z,86.85
2023-11-08T02:26:52.724Z,86.89
2023-11-08T02:27:04.904Z,86.87
2023-11-08T02:27:16.980Z,86.68
2023-11-08T02:27:28.926Z,86.52
2023-11-08T02:27:46.261Z,86.79
2023-11-08T02:27:58.449Z,86.70
2023-11-08T02:28:10.972Z,86.62
2023-11-08T02:28:22.960Z,86.57
2023-11-08T02:28:35.599Z,86.58
2023-11-08T02:28:47.503Z,86.51
2023-11-08T02:28:59.449Z,86.48
2023-11-08T02:29:11.472Z,86.40
2023-11-08T02:29:23.425Z,86.26
2023-11-08T02:29:35.472Z,86.38
2023-11-08T02:29:47.488Z,86.66
2023-11-08T02:29:59.468Z,86.57
2023-11-08T02:30:14.744Z,86.60
2023-11-08T02:30:27.223Z,86.68
2023-11-08T02:30:39.361Z,86.72
2023-11-08T02:30:55.926Z,86.60
2023-11-08T02:31:08.320Z,86.51
2023-11-08T02:31:20.349Z,86.40
2023-11-08T02:31:32.431Z,86.37
2023-11-08T02:31:45.151Z,86.40
2023-11-08T02:31:57.105Z,86.29
2023-11-08T02:32:10.244Z,86.25
2023-11-08T02:32:22.332Z,86.46
2023-11-08T02:32:36.132Z,86.49
2023-11-08T02:32:48.232Z,86.54
2023-11-08T02:33:00.454Z,86.63
2023-11-08T02:33:12.747Z,86.77
2023-11-08T02:33:26.387Z,86.76
2023-11-08T02:33:41.384Z,86.66
2023-11-08T02:33:53.940Z,86.40
2023-11-08T02:34:07.658Z,86.45
2023-11-08T02:34:20.078Z,86.53
2023-11-08T02:34:32.949Z,86.72
2023-11-08T02:34:45.126Z,86.24
2023-11-08T02:34:57.146Z,86.38
2023-11-08T02:35:09.588Z,86.26
2023-11-08T02:35:21.844Z,85.74
2023-11-08T02:35:33.969Z,85.97
2023-11-08T02:35:45.951Z,85.94
2023-11-08T02:36:01.880Z,86.08
2023-11-08T02:36:15.129Z,85.98
2023-11-08T02:36:27.223Z,86.17
2023-11-08T02:36:39.241Z,86.19
2023-11-08T02:36:51.260Z,86.13
2023-11-08T02:37:03.828Z,86.00
2023-11-08T02:37:17.098Z,86.35
2023-11-08T02:37:29.590Z,86.18
2023-11-08T02:37:42.323Z,86.02
2023-11-08T02:37:54.345Z,86.09
2023-11-08T02:38:07.252Z,86.46
2023-11-08T02:38:19.407Z,86.23
2023-11-08T02:38:31.688Z,86.67
2023-11-08T02:38:43.645Z,86.59
2023-11-08T02:38:56.978Z,86.56
2023-11-08T02:39:08.971Z,86.73
2023-11-08T02:39:21.233Z,86.88
2023-11-08T02:39:33.253Z,86.70
2023-11-08T02:39:45.229Z,86.66
2023-11-08T02:39:57.376Z,86.83
2023-11-08T02:40:10.130Z,86.47
2023-11-08T02:40:22.975Z,86.60
2023-11-08T02:40:35.228Z,86.57
2023-11-08T02:40:47.862Z,86.51
2023-11-08T02:40:59.827Z,86.54
2023-11-08T02:41:11.808Z,86.83
2023-11-08T02:41:25.111Z,86.81
2023-11-08T02:41:37.120Z,86.80
2023-11-08T02:41:51.422Z,86.69
2023-11-08T02:42:03.461Z,86.84
2023-11-08T02:42:15.427Z,86.85
2023-11-08T02:42:29.076Z,86.98
2023-11-08T02:42:45.304Z,86.81
2023-11-08T02:42:57.340Z,86.96
2023-11-08T02:43:10.708Z,87.04
2023-11-08T02:43:23.623Z,87.02